Time;durP1;ratioP1;P1;durP2;ratioP2;P2;SDS_P1;SDS_P2;PMS_P1;PMS_P2;Temp;Humidity;BMP_temperature;BMP_pressure;BME280_temperature;BME280_humidity;BME280_pressure;Samples;Min_cycle;Max_cycle;Signal;HPM_P1;HPM_P2
2022/05/14 00:00:57;;;;;;;26.05;5.00;;;12.80;99.90;;;;;;5052117;28;20047;-77
2022/05/14 00:07:04;;;;;;;28.15;5.38;;;12.80;99.90;;;;;;5088167;28;20506;-74
2022/05/14 00:09:29;;;;;;;26.42;5.10;;;12.80;99.90;;;;;;5067250;28;20056;-76
2022/05/14 00:14:39;;;;;;;24.17;5.68;;;12.80;99.90;;;;;;5063790;28;20048;-77
2022/05/14 00:17:05;;;;;;;24.55;5.65;;;12.70;99.90;;;;;;5048396;28;20246;-78
2022/05/14 00:19:31;;;;;;;22.50;5.63;;;12.60;99.90;;;;;;5057313;28;20056;-76
2022/05/14 00:21:57;;;;;;;27.75;5.25;;;12.60;99.90;;;;;;5059515;28;20233;-76
2022/05/14 00:24:23;;;;;;;27.08;5.78;;;12.60;99.90;;;;;;5049189;28;20040;-75
2022/05/14 00:26:49;;;;;;;29.15;5.07;;;12.50;99.90;;;;;;5042513;28;20056;-76
2022/05/14 00:29:15;;;;;;;28.30;5.57;;;12.50;99.90;;;;;;5054698;28;20036;-76
2022/05/14 00:31:41;;;;;;;32.20;6.35;;;12.50;99.90;;;;;;5069725;28;20048;-77
2022/05/14 00:34:06;;;;;;;27.92;5.55;;;12.50;99.90;;;;;;5077803;28;20426;-76
2022/05/14 00:36:33;;;;;;;27.55;5.68;;;12.50;99.90;;;;;;5098529;28;20094;-77
2022/05/14 00:38:59;;;;;;;27.98;5.82;;;12.40;99.90;;;;;;5108967;27;20040;-76
2022/05/14 00:41:27;;;;;;;25.80;5.65;;;12.40;99.90;;;;;;5082789;28;20038;-77
2022/05/14 00:44:01;;;;;;;28.00;5.85;;;12.40;99.90;;;;;;5098077;28;20127;-76
2022/05/14 00:46:40;;;;;;;30.38;6.28;;;12.40;99.90;;;;;;5078039;28;20036;-76
2022/05/14 00:49:06;;;;;;;31.35;6.20;;;12.50;99.90;;;;;;5098099;28;20097;-76
2022/05/14 00:51:32;;;;;;;31.63;6.30;;;12.40;99.90;;;;;;5099193;28;20039;-76
2022/05/14 00:54:10;;;;;;;30.92;6.00;;;12.40;99.90;;;;;;5095754;28;20040;-76
2022/05/14 00:56:40;;;;;;;36.35;6.47;;;12.40;99.90;;;;;;5095116;28;20040;-76
2022/05/14 00:59:10;;;;;;;34.60;6.28;;;12.40;99.90;;;;;;5099267;28;20024;-76
2022/05/14 01:01:39;;;;;;;34.83;6.57;;;12.40;99.90;;;;;;5114350;27;20071;-76
2022/05/14 01:04:06;;;;;;;26.17;6.72;;;12.50;99.90;;;;;;5097884;28;20146;-76
2022/05/14 01:06:33;;;;;;;29.73;6.88;;;12.40;99.90;;;;;;5099814;28;20418;-76
2022/05/14 01:08:59;;;;;;;32.63;6.40;;;12.50;99.90;;;;;;5078834;28;20047;-76
2022/05/14 01:11:27;;;;;;;34.00;6.28;;;12.60;99.90;;;;;;5084420;28;20036;-76
2022/05/14 01:13:53;;;;;;;32.58;6.10;;;12.50;99.90;;;;;;5094515;28;20245;-76
2022/05/14 01:16:20;;;;;;;37.10;6.50;;;12.50;99.90;;;;;;5075495;28;20546;-77
2022/05/14 01:18:46;;;;;;;32.38;6.20;;;12.50;99.90;;;;;;5094127;28;20390;-76
2022/05/14 01:21:30;;;;;;;38.08;7.00;;;12.60;99.90;;;;;;5079563;28;20040;-76
2022/05/14 01:26:55;;;;;;;37.40;6.88;;;12.50;99.90;;;;;;5092524;28;20078;-77
2022/05/14 01:29:24;;;;;;;31.70;6.60;;;12.50;99.90;;;;;;5094724;28;20068;-77
2022/05/14 01:31:51;;;;;;;33.95;6.85;;;12.40;99.90;;;;;;5078106;28;20048;-76
2022/05/14 01:34:23;;;;;;;34.65;6.68;;;12.40;99.90;;;;;;5104507;28;20044;-75
2022/05/14 01:36:50;;;;;;;35.17;6.78;;;12.40;99.90;;;;;;5082999;28;20113;-76
2022/05/14 01:39:16;;;;;;;35.55;6.88;;;12.50;99.90;;;;;;5076589;28;20043;-76
2022/05/14 01:41:44;;;;;;;41.70;7.10;;;12.40;99.90;;;;;;5097220;28;20031;-76
2022/05/14 01:44:10;;;;;;;38.30;6.68;;;12.40;99.90;;;;;;5091529;28;20468;-76
2022/05/14 01:46:36;;;;;;;36.35;6.90;;;12.30;99.90;;;;;;5080188;28;20112;-78
2022/05/14 01:49:02;;;;;;;45.63;7.82;;;12.30;99.90;;;;;;5073967;28;20036;-76
2022/05/14 01:51:28;;;;;;;36.83;7.35;;;12.30;99.90;;;;;;5076311;28;20581;-76
2022/05/14 01:53:54;;;;;;;37.42;7.13;;;12.20;99.90;;;;;;5094934;28;20408;-77
2022/05/14 01:56:20;;;;;;;38.40;7.55;;;12.20;99.90;;;;;;5100900;28;20031;-77
2022/05/14 01:58:46;;;;;;;29.95;7.18;;;12.20;99.90;;;;;;5079705;28;20115;-76
2022/05/14 02:01:18;;;;;;;37.97;7.47;;;12.20;99.90;;;;;;5091658;28;20044;-77
2022/05/14 02:03:50;;;;;;;43.75;8.30;;;12.20;99.90;;;;;;5077863;28;20051;-76
2022/05/14 02:06:16;;;;;;;42.35;8.18;;;12.20;99.90;;;;;;5095572;28;20128;-77
2022/05/14 02:08:43;;;;;;;41.95;8.48;;;12.20;99.90;;;;;;5073849;28;20487;-77
2022/05/14 02:11:09;;;;;;;39.67;8.30;;;12.20;99.90;;;;;;5078063;28;20127;-77
2022/05/14 02:13:36;;;;;;;36.22;8.13;;;12.10;99.90;;;;;;5095747;28;20069;-76
2022/05/14 02:16:03;;;;;;;36.05;8.00;;;12.00;99.90;;;;;;5095491;28;20394;-77
2022/05/14 02:18:31;;;;;;;40.28;8.60;;;12.00;99.90;;;;;;5093942;28;20150;-76
2022/05/14 02:20:56;;;;;;;48.67;9.48;;;12.00;99.90;;;;;;5074693;28;20084;-77
2022/05/14 02:23:22;;;;;;;49.20;9.38;;;11.90;99.90;;;;;;5096055;28;20122;-77
2022/05/14 02:25:48;;;;;;;48.15;8.55;;;11.90;99.90;;;;;;5096419;28;20047;-77
2022/05/14 02:28:15;;;;;;;41.42;8.77;;;11.80;99.90;;;;;;5096477;28;20400;-77
2022/05/14 02:30:41;;;;;;;43.88;8.40;;;11.80;99.90;;;;;;5087958;28;20462;-78
2022/05/14 02:33:07;;;;;;;41.25;9.50;;;11.80;99.90;;;;;;5074560;28;20032;-77
2022/05/14 02:35:32;;;;;;;40.20;7.97;;;11.70;99.90;;;;;;5097947;28;20129;-77
2022/05/14 02:37:58;;;;;;;37.45;8.50;;;11.60;99.90;;;;;;5107279;28;20498;-76
2022/05/14 02:40:24;;;;;;;46.85;8.32;;;11.70;99.90;;;;;;5111226;28;20054;-77
2022/05/14 02:42:50;;;;;;;51.35;8.95;;;11.60;99.90;;;;;;5108494;28;20334;-77
2022/05/14 02:45:16;;;;;;;42.95;8.00;;;11.50;99.90;;;;;;5106368;28;20031;-78
2022/05/14 02:47:44;;;;;;;55.25;9.57;;;11.50;99.90;;;;;;5098731;28;20455;-77
2022/05/14 02:50:10;;;;;;;37.90;7.97;;;11.60;99.90;;;;;;5095944;28;20048;-77
2022/05/14 02:52:39;;;;;;;47.03;8.90;;;11.50;99.90;;;;;;5093654;28;20031;-77
2022/05/14 02:55:06;;;;;;;50.80;9.10;;;11.50;99.90;;;;;;5084864;28;20085;-76
2022/05/14 02:57:32;;;;;;;46.58;8.82;;;11.40;99.90;;;;;;5082541;28;20062;-75
2022/05/14 02:59:58;;;;;;;49.78;8.65;;;11.40;99.90;;;;;;5083974;28;20039;-76
2022/05/14 03:02:24;;;;;;;43.95;9.00;;;11.40;99.90;;;;;;5110104;28;20032;-76
2022/05/14 03:04:50;;;;;;;48.58;9.80;;;11.40;99.90;;;;;;5094186;28;20153;-77
2022/05/14 03:07:16;;;;;;;48.97;8.77;;;11.30;99.90;;;;;;5096266;28;20084;-78
2022/05/14 03:09:43;;;;;;;54.72;9.13;;;11.40;99.90;;;;;;5092085;28;20430;-77
2022/05/14 03:12:11;;;;;;;42.55;9.20;;;11.30;99.90;;;;;;5077936;28;20503;-78
2022/05/14 03:14:37;;;;;;;51.33;9.75;;;11.20;99.90;;;;;;5093960;28;20039;-78
2022/05/14 03:17:04;;;;;;;48.17;9.27;;;11.20;99.90;;;;;;5090734;28;20040;-77
2022/05/14 03:19:30;;;;;;;54.45;9.93;;;11.10;99.90;;;;;;5079365;28;20059;-77
2022/05/14 03:21:55;;;;;;;44.28;9.55;;;11.10;99.90;;;;;;5092536;28;20753;-77
2022/05/14 03:24:21;;;;;;;39.78;8.77;;;11.00;99.90;;;;;;5093193;28;20058;-77
2022/05/14 03:26:47;;;;;;;43.83;8.65;;;11.10;99.90;;;;;;5093122;28;20048;-76
2022/05/14 03:29:13;;;;;;;47.25;9.00;;;11.00;99.90;;;;;;5073621;28;20032;-76
2022/05/14 03:31:40;;;;;;;44.03;9.63;;;11.00;99.90;;;;;;5094037;28;20139;-76
2022/05/14 03:34:07;;;;;;;45.25;9.38;;;10.90;99.90;;;;;;5095038;28;20031;-78
2022/05/14 03:36:33;;;;;;;43.00;9.52;;;10.90;99.90;;;;;;5091178;28;20147;-78
2022/05/14 03:38:59;;;;;;;47.00;9.43;;;10.90;99.90;;;;;;5092965;28;20060;-78
2022/05/14 03:41:25;;;;;;;46.83;9.40;;;10.90;99.90;;;;;;5070672;28;20031;-76
2022/05/14 03:43:51;;;;;;;60.92;9.93;;;10.90;99.90;;;;;;5091643;28;20423;-77
2022/05/14 03:46:17;;;;;;;46.20;10.63;;;10.90;99.90;;;;;;5075642;28;20386;-77
2022/05/14 03:48:43;;;;;;;51.25;10.75;;;10.80;99.90;;;;;;5078148;28;20041;-77
2022/05/14 03:51:08;;;;;;;51.42;9.38;;;10.90;99.90;;;;;;5087063;28;20455;-77
2022/05/14 03:53:36;;;;;;;60.20;11.10;;;10.90;99.90;;;;;;5073672;28;20059;-78
2022/05/14 03:56:03;;;;;;;57.33;10.48;;;10.90;99.90;;;;;;5090186;28;20119;-78
2022/05/14 03:58:28;;;;;;;48.97;10.13;;;10.90;99.90;;;;;;5090392;28;20114;-78
2022/05/14 04:00:54;;;;;;;49.08;10.70;;;10.80;99.90;;;;;;5097340;28;20039;-78
2022/05/14 04:03:20;;;;;;;62.63;12.00;;;11.00;99.90;;;;;;5093358;28;20130;-78
2022/05/14 04:05:46;;;;;;;60.63;11.57;;;10.90;99.90;;;;;;5090566;28;20124;-78
2022/05/14 04:08:12;;;;;;;57.47;11.05;;;10.90;99.90;;;;;;5091751;28;20042;-77
2022/05/14 04:10:38;;;;;;;60.22;10.52;;;10.90;99.90;;;;;;5094432;28;20031;-78
2022/05/14 04:13:04;;;;;;;49.67;11.38;;;11.00;99.90;;;;;;5096461;28;20082;-77
2022/05/14 04:15:30;;;;;;;54.75;11.07;;;10.90;99.90;;;;;;5092769;28;20036;-76
2022/05/14 04:17:56;;;;;;;46.85;10.48;;;10.90;99.90;;;;;;5092889;28;20358;-76
2022/05/14 04:20:22;;;;;;;53.30;10.63;;;11.00;99.90;;;;;;5074303;28;20043;-76
2022/05/14 04:22:49;;;;;;;50.55;10.75;;;11.00;99.90;;;;;;5101067;28;20096;-76
2022/05/14 04:25:16;;;;;;;45.75;10.88;;;11.00;99.90;;;;;;5083311;28;20044;-76
2022/05/14 04:27:42;;;;;;;57.10;11.23;;;11.00;99.90;;;;;;5099513;28;20035;-75
2022/05/14 04:30:09;;;;;;;53.03;10.95;;;11.10;99.90;;;;;;5105419;28;20041;-75
2022/05/14 04:32:36;;;;;;;50.00;10.68;;;11.10;99.90;;;;;;5082592;28;20503;-78
2022/05/14 04:35:02;;;;;;;65.80;11.40;;;11.10;99.90;;;;;;5081713;28;20032;-77
2022/05/14 04:37:28;;;;;;;49.30;11.50;;;11.30;99.90;;;;;;5093849;28;20063;-77
2022/05/14 04:39:53;;;;;;;57.67;11.23;;;11.20;99.90;;;;;;5098561;28;20063;-77
2022/05/14 04:42:19;;;;;;;54.80;11.80;;;11.70;99.90;;;;;;5075191;28;20028;-77
2022/05/14 04:44:45;;;;;;;47.70;11.23;;;11.30;99.90;;;;;;5108550;28;20097;-78
2022/05/14 04:47:11;;;;;;;56.58;11.13;;;11.30;99.90;;;;;;5104283;28;20039;-78
2022/05/14 04:49:39;;;;;;;53.00;10.95;;;11.30;99.90;;;;;;5096944;28;20032;-78
2022/05/14 04:52:05;;;;;;;58.80;12.75;;;11.40;99.90;;;;;;5110820;28;20043;-78
2022/05/14 04:54:31;;;;;;;48.72;10.63;;;11.40;99.90;;;;;;5096767;28;20058;-78
2022/05/14 04:56:56;;;;;;;46.92;11.20;;;11.50;99.90;;;;;;5111786;28;20077;-76
2022/05/14 04:59:22;;;;;;;50.13;11.23;;;11.50;99.90;;;;;;5111644;28;20135;-77
2022/05/14 05:04:33;;;;;;;48.38;9.82;;;11.70;99.90;;;;;;5096114;28;20054;-76
2022/05/14 05:06:58;;;;;;;50.28;11.00;;;11.80;99.90;;;;;;5097765;28;20047;-76
2022/05/14 05:09:24;;;;;;;52.40;10.30;;;11.80;99.90;;;;;;5079927;28;20028;-77
2022/05/14 05:11:50;;;;;;;44.88;10.02;;;11.90;99.90;;;;;;5077628;28;20060;-77
2022/05/14 05:14:16;;;;;;;44.95;10.05;;;12.00;99.90;;;;;;5098018;28;20032;-77
2022/05/14 05:16:42;;;;;;;58.50;11.38;;;12.10;99.90;;;;;;5095730;28;20032;-77
2022/05/14 05:19:08;;;;;;;45.40;9.93;;;12.20;99.90;;;;;;5072935;28;20089;-76
2022/05/14 05:21:34;;;;;;;48.35;10.05;;;12.30;99.90;;;;;;5096849;28;20081;-77
2022/05/14 05:24:01;;;;;;;50.10;9.30;;;12.30;99.90;;;;;;5076524;28;20056;-77
2022/05/14 05:26:27;;;;;;;48.75;10.70;;;12.40;99.90;;;;;;5097769;28;20066;-77
2022/05/14 05:28:53;;;;;;;44.22;9.57;;;12.40;99.90;;;;;;5094048;28;20443;-77
2022/05/14 05:31:19;;;;;;;47.13;9.25;;;12.50;99.90;;;;;;5083291;28;20042;-77
2022/05/14 05:33:44;;;;;;;53.13;9.77;;;12.40;99.90;;;;;;5074336;28;20036;-77
2022/05/14 05:36:10;;;;;;;46.53;9.10;;;12.40;99.90;;;;;;5095975;28;20055;-78
2022/05/14 05:38:37;;;;;;;47.38;9.50;;;12.40;99.90;;;;;;5091628;28;20526;-78
2022/05/14 05:41:03;;;;;;;46.47;9.20;;;12.50;99.90;;;;;;5075439;28;20245;-78
2022/05/14 05:43:29;;;;;;;41.47;8.80;;;12.50;99.90;;;;;;5082172;28;20150;-77
2022/05/14 05:45:56;;;;;;;39.33;9.02;;;12.60;99.90;;;;;;5079198;28;20471;-78
2022/05/14 05:48:23;;;;;;;44.05;8.57;;;12.60;99.90;;;;;;5093811;28;20167;-77
2022/05/14 05:50:49;;;;;;;44.97;8.82;;;12.80;99.90;;;;;;5078641;28;20059;-78
2022/05/14 05:53:16;;;;;;;40.92;8.68;;;12.70;99.90;;;;;;5115652;27;20028;-77
2022/05/14 05:58:32;;;;;;;43.95;8.35;;;12.70;99.90;;;;;;5101890;28;20043;-74
2022/05/14 06:00:58;;;;;;;36.05;7.88;;;13.00;99.90;;;;;;5094085;28;20076;-77
2022/05/14 06:03:23;;;;;;;39.28;7.68;;;13.10;99.90;;;;;;5073127;28;20070;-78
2022/05/14 06:05:49;;;;;;;42.35;7.20;;;13.30;99.90;;;;;;5078848;28;20102;-76
2022/05/14 06:08:16;;;;;;;40.08;8.43;;;13.40;99.90;;;;;;5085639;28;20043;-77
2022/05/14 06:10:42;;;;;;;38.78;7.22;;;13.40;99.90;;;;;;5091916;28;20600;-77
2022/05/14 06:13:09;;;;;;;41.20;7.45;;;13.50;99.90;;;;;;5094588;28;20036;-76
2022/05/14 06:15:36;;;;;;;40.10;7.43;;;13.50;99.90;;;;;;5091419;28;20067;-79
2022/05/14 06:18:03;;;;;;;37.08;7.13;;;13.50;99.90;;;;;;5090343;28;20039;-78
2022/05/14 06:20:29;;;;;;;34.03;7.60;;;13.60;99.90;;;;;;5085460;28;20577;-77
2022/05/14 06:22:55;;;;;;;30.25;6.28;;;13.60;99.90;;;;;;5090105;28;20100;-79
2022/05/14 06:25:21;;;;;;;38.85;7.15;;;13.70;99.90;;;;;;5088982;28;20047;-80
2022/05/14 06:27:46;;;;;;;37.15;6.50;;;13.70;99.90;;;;;;5091877;28;20036;-77
2022/05/14 06:30:15;;;;;;;34.72;6.45;;;13.70;99.90;;;;;;5077585;28;20069;-77
2022/05/14 06:32:41;;;;;;;30.77;6.45;;;13.70;99.90;;;;;;5095583;28;20048;-77
2022/05/14 06:35:09;;;;;;;33.67;6.70;;;13.80;99.90;;;;;;5084686;28;20105;-77
2022/05/14 06:37:35;;;;;;;30.77;6.03;;;13.90;99.90;;;;;;5092463;28;20028;-77
2022/05/14 06:40:01;;;;;;;38.28;6.90;;;14.10;99.90;;;;;;5090429;28;20040;-77
2022/05/14 06:42:26;;;;;;;32.65;6.22;;;14.00;99.90;;;;;;5072049;28;20530;-78
2022/05/14 06:44:53;;;;;;;29.70;6.32;;;14.10;99.90;;;;;;5096885;28;20139;-77
2022/05/14 06:47:20;;;;;;;30.85;6.00;;;14.20;99.90;;;;;;5092874;28;20079;-78
2022/05/14 06:49:46;;;;;;;30.70;6.22;;;14.10;99.90;;;;;;5092523;28;20597;-77
2022/05/14 06:52:15;;;;;;;33.55;6.40;;;14.20;99.90;;;;;;5087647;28;20063;-79
2022/05/14 06:54:45;;;;;;;30.67;6.35;;;14.20;99.90;;;;;;5095243;28;20056;-77
2022/05/14 06:57:13;;;;;;;33.40;6.05;;;14.30;99.90;;;;;;5090881;28;20100;-77
2022/05/14 06:59:38;;;;;;;34.83;6.15;;;14.40;99.90;;;;;;5075205;28;20059;-78
2022/05/14 07:02:05;;;;;;;26.75;5.90;;;14.40;99.90;;;;;;5089924;28;20048;-77
2022/05/14 07:07:17;;;;;;;30.20;6.00;;;14.50;99.90;;;;;;5093035;28;20043;-77
2022/05/14 07:09:44;;;;;;;29.75;5.57;;;14.50;99.90;;;;;;5089609;28;20042;-77
2022/05/14 07:12:10;;;;;;;32.33;5.75;;;14.60;99.90;;;;;;5081840;28;20455;-77
2022/05/14 07:14:40;;;;;;;30.33;5.82;;;14.70;99.90;;;;;;5093669;28;20044;-78
2022/05/14 07:17:08;;;;;;;31.38;5.88;;;14.70;99.90;;;;;;5089952;28;20036;-75
2022/05/14 07:23:15;;;;;;;24.83;5.25;;;14.80;99.90;;;;;;5096476;28;20104;-73
2022/05/14 07:25:40;;;;;;;32.80;6.07;;;14.80;99.90;;;;;;5079187;28;20463;-73
2022/05/14 07:28:08;;;;;;;31.75;5.78;;;14.80;99.90;;;;;;5094563;28;20062;-76
2022/05/14 07:30:35;;;;;;;23.85;5.03;;;14.90;99.90;;;;;;5084699;28;20379;-75
2022/05/14 07:33:00;;;;;;;27.35;5.00;;;14.90;99.90;;;;;;5070888;28;20056;-76
2022/05/14 07:35:27;;;;;;;21.08;4.55;;;14.90;99.90;;;;;;5089199;28;20034;-76
2022/05/14 07:37:57;;;;;;;38.55;5.20;;;15.00;99.90;;;;;;5088343;28;20067;-75
2022/05/14 07:40:26;;;;;;;22.17;4.65;;;15.00;99.90;;;;;;5079975;28;20834;-76
2022/05/14 07:43:03;;;;;;;21.85;4.80;;;15.10;99.90;;;;;;5087183;28;20123;-76
2022/05/14 07:45:42;;;;;;;28.65;5.07;;;15.20;99.90;;;;;;5089342;28;20285;-76
2022/05/14 07:48:16;;;;;;;29.58;5.03;;;15.20;99.90;;;;;;5093326;28;20402;-73
2022/05/14 07:50:45;;;;;;;26.02;5.22;;;15.30;99.90;;;;;;5090531;28;20054;-76
2022/05/14 07:53:15;;;;;;;23.45;5.05;;;15.30;99.90;;;;;;5085666;28;20047;-74
2022/05/14 07:55:43;;;;;;;25.92;4.80;;;15.30;99.90;;;;;;5076116;28;20048;-75
2022/05/14 07:58:09;;;;;;;29.25;5.00;;;15.30;99.90;;;;;;5072616;28;20139;-75
2022/05/14 08:00:35;;;;;;;27.05;5.18;;;15.40;99.90;;;;;;5086709;28;20123;-75
2022/05/14 08:03:02;;;;;;;27.17;5.30;;;15.50;99.90;;;;;;5066695;28;20048;-74
2022/05/14 08:05:27;;;;;;;27.38;5.30;;;15.60;99.90;;;;;;5082116;28;20044;-76
2022/05/14 08:07:53;;;;;;;22.50;5.05;;;15.60;99.90;;;;;;5079391;28;20043;-76
2022/05/14 08:10:19;;;;;;;24.08;4.50;;;15.70;99.90;;;;;;5095814;28;20040;-75
2022/05/14 08:12:53;;;;;;;21.75;4.80;;;15.60;99.90;;;;;;5088272;28;20662;-75
2022/05/14 08:15:21;;;;;;;23.02;4.90;;;15.70;99.90;;;;;;5074019;28;20036;-76
2022/05/14 08:17:48;;;;;;;26.52;4.95;;;15.70;99.90;;;;;;5074296;28;20052;-75
2022/05/14 08:20:15;;;;;;;21.50;4.55;;;15.80;99.90;;;;;;5075365;28;20052;-75
2022/05/14 08:25:26;;;;;;;26.70;5.15;;;15.90;99.90;;;;;;5093200;28;20040;-76
2022/05/14 08:27:52;;;;;;;23.15;4.82;;;16.00;99.90;;;;;;5093718;28;20044;-76
2022/05/14 08:30:27;;;;;;;23.00;5.45;;;16.20;99.90;;;;;;5094267;28;20139;-76
2022/05/14 08:32:53;;;;;;;25.55;4.82;;;16.30;99.90;;;;;;5075549;28;20475;-76
2022/05/14 08:35:19;;;;;;;24.02;5.10;;;16.30;99.90;;;;;;5094721;28;20429;-76
2022/05/14 08:37:46;;;;;;;22.13;5.18;;;16.30;99.90;;;;;;5074964;28;20081;-76
2022/05/14 08:40:32;;;;;;;19.35;4.63;;;16.50;99.90;;;;;;5086765;28;20139;-76
2022/05/14 08:43:06;;;;;;;24.40;5.25;;;16.90;99.90;;;;;;5087272;28;20467;-76
2022/05/14 08:45:37;;;;;;;25.15;5.55;;;17.00;99.90;;;;;;5098997;28;20119;-76
2022/05/14 08:48:26;;;;;;;28.38;6.10;;;17.10;99.90;;;;;;5093817;28;20421;-76
2022/05/14 08:50:57;;;;;;;25.65;5.38;;;17.40;99.90;;;;;;5097897;28;20036;-73
2022/05/14 08:53:26;;;;;;;21.13;5.35;;;17.30;99.90;;;;;;5101124;28;20466;-76
2022/05/14 08:56:22;;;;;;;30.10;6.07;;;17.50;99.90;;;;;;5103757;28;20455;-76
2022/05/14 08:58:59;;;;;;;;;;;17.40;99.90;;;;;;5096474;28;20094;-76
2022/05/14 09:01:37;;;;;;;28.85;5.32;;;17.40;99.90;;;;;;5097100;28;19923;-76
2022/05/14 09:04:04;;;;;;;23.10;5.43;;;17.30;99.90;;;;;;5076841;28;20433;-76
2022/05/14 09:06:30;;;;;;;29.80;5.53;;;17.10;99.90;;;;;;5096472;28;20459;-75
2022/05/14 09:08:55;;;;;;;24.00;5.22;;;17.10;99.90;;;;;;5112066;28;20043;-76
2022/05/14 09:11:28;;;;;;;26.92;5.45;;;17.20;99.90;;;;;;5108094;28;20046;-75
2022/05/14 09:13:56;;;;;;;23.42;5.70;;;17.40;99.90;;;;;;5112329;28;20039;-76
2022/05/14 09:16:30;;;;;;;24.00;5.18;;;17.50;99.90;;;;;;5094063;28;20036;-76
2022/05/14 09:18:57;;;;;;;20.87;4.93;;;17.80;99.90;;;;;;5091737;28;20116;-76
2022/05/14 09:21:30;;;;;;;26.90;5.40;;;18.00;99.90;;;;;;5093451;28;20067;-76
2022/05/14 09:24:12;;;;;;;26.70;5.43;;;18.10;99.90;;;;;;5074622;28;20482;-76
2022/05/14 09:26:41;;;;;;;25.35;5.15;;;18.30;99.90;;;;;;5093434;28;20064;-76
2022/05/14 09:29:45;;;;;;;30.17;5.75;;;18.10;99.90;;;;;;5092604;28;20387;-76
2022/05/14 09:32:34;;;;;;;24.42;4.78;;;18.10;99.90;;;;;;5053164;28;20110;-76
2022/05/14 09:35:17;;;;;;;27.80;5.97;;;18.10;99.90;;;;;;5035174;28;20172;-76
2022/05/14 09:37:43;;;;;;;23.88;5.05;;;18.30;99.90;;;;;;5052817;28;20145;-76
2022/05/14 09:40:21;;;;;;;22.05;5.50;;;18.30;99.90;;;;;;5052637;28;20047;-76
2022/05/14 09:42:51;;;;;;;29.83;5.53;;;18.40;99.90;;;;;;5052772;28;20115;-76
2022/05/14 09:45:25;;;;;;;17.80;4.78;;;18.40;99.90;;;;;;5051265;28;20048;-76
2022/05/14 09:47:51;;;;;;;28.63;5.50;;;18.60;99.90;;;;;;5053699;28;20060;-76
2022/05/14 09:50:39;;;;;;;21.25;5.07;;;18.70;99.90;;;;;;5048732;28;20062;-77
2022/05/14 09:53:06;;;;;;;24.85;5.53;;;18.40;99.90;;;;;;5028672;28;20520;-75
2022/05/14 09:56:03;;;;;;;26.92;5.88;;;18.30;99.90;;;;;;5026292;28;20036;-76
2022/05/14 09:59:00;;;;;;;26.92;5.57;;;18.20;99.90;;;;;;5023712;28;20049;-77
2022/05/14 10:01:32;;;;;;;25.17;5.55;;;18.40;99.90;;;;;;5043661;28;20044;-77
2022/05/14 10:04:24;;;;;;;23.60;4.95;;;18.50;99.90;;;;;;5085893;28;20127;-77
2022/05/14 10:06:55;;;;;;;21.63;5.00;;;18.60;99.90;;;;;;5069391;28;20056;-76
2022/05/14 10:09:36;;;;;;;23.73;4.80;;;18.20;99.90;;;;;;5077346;28;20083;-77
2022/05/14 10:12:21;;;;;;;28.92;6.30;;;18.30;99.90;;;;;;5084129;28;20036;-78
2022/05/14 10:15:05;;;;;;;26.63;5.40;;;18.40;99.90;;;;;;5081871;28;20490;-77
2022/05/14 10:17:40;;;;;;;22.40;4.93;;;18.40;99.90;;;;;;5099141;28;20371;-74
2022/05/14 10:20:17;;;;;;;25.00;5.38;;;18.80;99.90;;;;;;5093465;28;20043;-74
2022/05/14 10:29:18;;;;;;;24.08;5.57;;;18.90;99.90;;;;;;5086901;28;20075;-78
2022/05/14 10:32:04;;;;;;;29.35;5.78;;;18.70;99.90;;;;;;5089766;28;20087;-76
2022/05/14 10:34:50;;;;;;;26.90;5.63;;;18.80;99.90;;;;;;5090634;28;20149;-74
2022/05/14 10:37:27;;;;;;;24.92;5.30;;;19.00;99.90;;;;;;5087849;28;20043;-73
2022/05/14 10:39:56;;;;;;;28.23;5.50;;;19.00;99.90;;;;;;5071478;28;20072;-75
2022/05/14 10:42:30;;;;;;;31.33;5.40;;;19.30;99.90;;;;;;5086935;28;20040;-75
2022/05/14 10:45:07;;;;;;;26.02;5.70;;;19.50;99.90;;;;;;5092504;28;20039;-75
2022/05/14 10:47:34;;;;;;;27.70;5.88;;;20.00;99.90;;;;;;5088604;28;20122;-76
2022/05/14 10:50:06;;;;;;;25.73;6.25;;;20.30;99.90;;;;;;5077267;28;20032;-78
2022/05/14 10:52:32;;;;;;;23.73;5.10;;;20.60;99.90;;;;;;5090894;28;20035;-77
2022/05/14 10:54:58;;;;;;;27.35;5.28;;;20.50;99.90;;;;;;5091408;28;20528;-75
2022/05/14 10:57:38;;;;;;;21.63;5.03;;;20.30;99.90;;;;;;5072614;28;20135;-76
2022/05/14 11:00:21;;;;;;;21.40;5.53;;;20.00;99.90;;;;;;5070664;28;20093;-78
2022/05/14 11:03:11;;;;;;;23.67;5.50;;;19.90;99.90;;;;;;5090190;27;20048;-76
2022/05/14 11:05:52;;;;;;;29.35;5.95;;;19.60;99.90;;;;;;5072389;28;20043;-73
2022/05/14 11:08:32;;;;;;;22.90;5.40;;;19.20;99.90;;;;;;5078675;28;20113;-77
2022/05/14 11:11:25;;;;;;;23.83;5.88;;;19.00;99.90;;;;;;5093353;28;20085;-75
2022/05/14 11:14:03;;;;;;;27.45;5.57;;;18.90;99.90;;;;;;5090897;28;20065;-75
2022/05/14 11:16:58;;;;;;;24.70;5.50;;;18.70;99.90;;;;;;5087568;28;20035;-76
2022/05/14 11:19:31;;;;;;;25.48;5.75;;;18.80;99.90;;;;;;5058507;28;21863;-74
2022/05/14 11:21:58;;;;;;;26.83;5.57;;;19.20;99.90;;;;;;5038017;28;20047;-76
2022/05/14 11:24:37;;;;;;;22.45;5.40;;;19.60;99.90;;;;;;5055967;28;20184;-77
2022/05/14 11:27:04;;;;;;;27.90;5.68;;;20.10;99.90;;;;;;5052094;28;20475;-75
2022/05/14 11:29:45;;;;;;;23.58;5.60;;;20.30;99.90;;;;;;5070590;28;20041;-78
2022/05/14 11:32:14;;;;;;;23.55;5.68;;;20.90;99.90;;;;;;5077084;28;20044;-74
2022/05/14 11:34:55;;;;;;;24.67;5.82;;;21.00;99.90;;;;;;5067193;28;20102;-75
2022/05/14 11:37:39;;;;;;;28.10;5.75;;;21.40;99.90;;;;;;5036002;28;20056;-77
2022/05/14 11:40:26;;;;;;;25.88;5.88;;;21.40;99.90;;;;;;5074732;28;20146;-77
2022/05/14 11:43:25;;;;;;;32.22;6.15;;;21.00;99.90;;;;;;5079038;28;20052;-76
2022/05/14 11:46:14;;;;;;;26.00;6.15;;;20.60;99.90;;;;;;4991200;28;20444;-72
2022/05/14 11:48:52;;;;;;;25.58;5.78;;;20.30;99.90;;;;;;4992385;28;20046;-73
2022/05/14 11:51:20;;;;;;;26.35;6.03;;;20.20;99.90;;;;;;4971299;28;20046;-74
2022/05/14 11:54:04;;;;;;;22.25;5.55;;;20.10;99.90;;;;;;4965481;28;20050;-74
2022/05/14 11:56:53;;;;;;;21.58;5.35;;;20.20;99.90;;;;;;5009822;28;20439;-75
2022/05/14 11:59:23;;;;;;;23.15;4.95;;;20.40;99.90;;;;;;5024014;28;20484;-77
2022/05/14 12:01:51;;;;;;;23.08;5.53;;;20.10;99.90;;;;;;5020153;28;20085;-74
2022/05/14 12:04:26;;;;;;;27.27;5.65;;;20.10;99.90;;;;;;5007795;28;20060;-75
2022/05/14 12:07:06;;;;;;;25.95;5.72;;;20.50;99.90;;;;;;5021176;28;20072;-76
2022/05/14 12:09:56;;;;;;;23.42;5.22;;;20.60;99.90;;;;;;5043968;28;20146;-76
2022/05/14 12:12:55;;;;;;;22.35;5.75;;;20.50;99.90;;;;;;5025806;28;20063;-77
2022/05/14 12:15:24;;;;;;;27.27;5.97;;;21.10;99.90;;;;;;5023359;28;20061;-77
2022/05/14 12:17:53;;;;;;;22.45;5.32;;;21.80;99.90;;;;;;5016669;28;20156;-79
2022/05/14 12:20:25;;;;;;;22.38;5.35;;;22.10;98.90;;;;;;5026731;28;20041;-77
2022/05/14 12:23:06;;;;;;;20.10;5.45;;;22.30;98.50;;;;;;5083796;28;20463;-77
2022/05/14 12:25:34;;;;;;;21.73;5.40;;;22.60;97.70;;;;;;5072200;28;20772;-76
2022/05/14 12:28:00;;;;;;;24.38;5.63;;;22.30;97.80;;;;;;5096042;28;20047;-76
2022/05/14 12:33:22;;;;;;;26.83;6.65;;;22.00;99.40;;;;;;5093019;28;20109;-75
2022/05/14 12:35:57;;;;;;;23.55;5.57;;;22.00;98.70;;;;;;5090963;28;20096;-76
2022/05/14 12:38:31;;;;;;;24.60;5.80;;;21.80;97.50;;;;;;5090913;28;20490;-75
2022/05/14 12:40:57;;;;;;;26.48;6.25;;;21.50;97.30;;;;;;5072097;28;20088;-78
2022/05/14 12:43:25;;;;;;;22.85;6.63;;;21.40;98.40;;;;;;5091968;28;20393;-74
2022/05/14 12:46:01;;;;;;;27.40;6.32;;;21.00;99.40;;;;;;5091114;28;20055;-77
2022/05/14 12:48:28;;;;;;;24.60;6.63;;;21.30;99.60;;;;;;5086873;28;20036;-77
2022/05/14 12:50:57;;;;;;;30.33;6.43;;;21.30;99.60;;;;;;5072444;28;20475;-76
2022/05/14 12:53:34;;;;;;;28.90;6.05;;;20.90;98.80;;;;;;5092995;28;20050;-76
2022/05/14 12:56:00;;;;;;;23.27;5.80;;;20.80;99.40;;;;;;5090793;28;20139;-76
2022/05/14 12:58:26;;;;;;;22.15;5.55;;;21.00;99.70;;;;;;5089219;28;20127;-76
2022/05/14 13:00:53;;;;;;;23.77;6.20;;;21.00;99.50;;;;;;5093411;28;20052;-77
2022/05/14 13:03:31;;;;;;;22.20;5.68;;;21.10;99.80;;;;;;5089870;28;20044;-76
2022/05/14 13:06:09;;;;;;;21.42;5.65;;;21.90;99.50;;;;;;5077179;28;20051;-76
2022/05/14 13:08:42;;;;;;;22.35;5.97;;;22.00;98.00;;;;;;5074989;28;20047;-75
2022/05/14 13:11:21;;;;;;;23.70;6.00;;;21.60;98.50;;;;;;5086818;28;20044;-78
2022/05/14 13:13:51;;;;;;;25.55;6.07;;;21.50;99.20;;;;;;5098756;28;20049;-73
2022/05/14 13:16:29;;;;;;;26.90;6.57;;;21.30;99.70;;;;;;5098267;28;20091;-73
2022/05/14 13:18:58;;;;;;;29.98;6.40;;;21.90;99.80;;;;;;5098811;28;20027;-74
2022/05/14 13:21:27;;;;;;;25.05;5.68;;;22.40;98.20;;;;;;5092348;28;20051;-74
2022/05/14 13:23:59;;;;;;;23.60;5.70;;;22.50;97.60;;;;;;5091117;28;20415;-75